Time,TemperatureF,DewpointF,PressureIn,WindDirection,WindDirectionDegrees,WindSpeedMPH,WindSpeedGustMPH,Humidity,HourlyPrecipIn,Conditions,Clouds,dailyrainin,SoftwareType,DateUTC
2013-03-12 00:03:00,58.0,-99.9,29.95,SSE,161,18.0,21.0,-999,-99.99,,,-99.99,,2013-03-12 04:03:00,
2013-03-12 00:13:00,59.0,-99.9,29.95,North,-999,-999.0,-999.0,-999,-99.99,,,-99.99,,2013-03-12 04:13:00,
2013-03-12 00:23:00,-999.0,-99.9,29.94,SSE,156,16.0,22.0,-999,-99.99,,,-99.99,,2013-03-12 04:23:00,
2013-03-12 00:33:00,59.0,-99.9,29.92,SSE,151,14.0,24.0,-999,-99.99,,,-99.99,,2013-03-12 04:33:00,
2013-03-12 00:43:00,58.0,-99.9,29.92,North,-999,-999.0,-999.0,-999,-99.99,,,-99.99,,2013-03-12 04:43:00,
2013-03-12 00:52:00,59.0,-99.9,29.91,North,-999,-999.0,-999.0,-999,-99.99,,,-99.99,,2013-03-12 04:52:00,
2013-03-12 01:03:00,58.0,-99.9,29.91,SSE,168,17.0,21.0,-999,-99.99,,,-99.99,,2013-03-12 05:03:00,
2013-03-12 01:12:00,58.0,-99.9,29.91,SSE,157,16.0,21.0,-999,-99.99,,,-99.99,,2013-03-12 05:12:00,
2013-03-12 01:22:00,-999.0,-99.9,29.90,SSE,154,14.0,21.0,-999,-99.99,,,-99.99,,2013-03-12 05:22:00,
2013-03-12 01:33:00,58.0,-99.9,29.90,SSE,161,17.0,22.0,-999,-99.99,,,-99.99,,2013-03-12 05:33:00,
2013-03-12 01:42:00,59.0,-99.9,29.88,SSE,155,16.0,24.0,-999,-99.99,,,-99.99,,2013-03-12 05:42:00,
2013-03-12 01:52:00,58.0,-99.9,29.88,North,-999,-999.0,-999.0,-999,-99.99,,,-99.99,,2013-03-12 05:52:00,
2013-03-12 02:02:00,59.0,-99.9,29.88,SSE,158,14.0,23.0,-999,-99.99,,,-99.99,,2013-03-12 06:02:00,
2013-03-12 02:12:00,58.0,-99.9,29.88,North,-999,-999.0,-999.0,-999,-99.99,,,-99.99,,2013-03-12 06:12:00,
2013-03-12 02:22:00,59.0,-99.9,29.88,North,-999,-999.0,-999.0,-999,-99.99,,,-99.99,,2013-03-12 06:22:00,
2013-03-12 02:32:00,59.0,-99.9,29.89,SSE,168,20.0,26.0,-999,-99.99,,,-99.99,,2013-03-12 06:32:00,
2013-03-12 02:42:00,-999.0,-99.9,29.89,SSE,168,15.0,20.0,-999,-99.99,,,-99.99,,2013-03-12 06:42:00,
2013-03-12 02:52:00,-999.0,-99.9,29.88,SSE,166,15.0,23.0,-999,-99.99,,,-99.99,,2013-03-12 06:52:00,
2013-03-12 03:02:00,58.0,-99.9,29.88,SSE,168,16.0,20.0,-999,-99.99,,,-99.99,,2013-03-12 07:02:00,
2013-03-12 03:12:00,56.0,-99.9,29.88,South,175,15.0,20.0,-999,-99.99,,,-99.99,,2013-03-12 07:12:00,
2013-03-12 03:22:00,58.0,-99.9,29.87,North,-999,-999.0,-999.0,-999,-99.99,,,-99.99,,2013-03-12 07:22:00,
2013-03-12 03:32:00,58.0,-99.9,29.87,South,172,16.0,18.0,-999,-99.99,,,-99.99,,2013-03-12 07:32:00,
2013-03-12 03:42:00,-999.0,-99.9,29.86,SSE,165,14.0,21.0,-999,-99.99,,,-99.99,,2013-03-12 07:42:00,
2013-03-12 03:53:00,-999.0,-99.9,29.86,SSE,161,13.0,19.0,-999,-99.99,,,-99.99,,2013-03-12 07:53:00,
2013-03-12 04:02:00,58.0,-99.9,29.85,South,171,14.0,16.0,-999,-99.99,,,-99.99,,2013-03-12 08:02:00,
2013-03-12 04:13:00,57.0,-99.9,29.85,North,-999,-999.0,-999.0,-999,-99.99,,,-99.99,,2013-03-12 08:13:00,
2013-03-12 04:22:00,58.0,-99.9,29.84,North,-999,-999.0,-999.0,-999,-99.99,,,-99.99,,2013-03-12 08:22:00,
2013-03-12 04:33:00,56.0,-99.9,29.85,South,177,11.0,15.0,-999,-99.99,,,-99.99,,2013-03-12 08:33:00,
2013-03-12 04:42:00,57.0,-99.9,29.83,SSE,162,13.0,17.0,-999,-99.99,,,-99.99,,2013-03-12 08:42:00,
2013-03-12 04:52:00,57.0,-99.9,29.83,North,-999,-999.0,-999.0,-999,-99.99,,,-99.99,,2013-03-12 08:52:00,
2013-03-12 05:03:00,57.0,-99.9,29.83,SSE,166,13.0,17.0,-999,-99.99,,,-99.99,,2013-03-12 09:03:00,
2013-03-12 05:12:00,-999.0,-99.9,29.83,SSE,167,14.0,20.0,-999,-99.99,,,-99.99,,2013-03-12 09:12:00,
2013-03-12 05:22:00,-999.0,-99.9,29.83,South,172,16.0,20.0,-999,-99.99,,,-99.99,,2013-03-12 09:22:00,
2013-03-12 05:33:00,56.0,-99.9,29.83,South,174,15.0,19.0,-999,-99.99,,,-99.99,,2013-03-12 09:33:00,
2013-03-12 05:43:00,-999.0,-99.9,29.82,SSE,166,15.0,19.0,-999,-99.99,,,-99.99,,2013-03-12 09:43:00,
2013-03-12 05:53:00,56.0,-99.9,29.82,North,-999,-999.0,-999.0,-999,-99.99,,,-99.99,,2013-03-12 09:53:00,
2013-03-12 06:02:00,56.0,-99.9,29.83,South,171,13.0,18.0,-999,-99.99,,,-99.99,,2013-03-12 10:02:00,
2013-03-12 06:12:00,56.0,-99.9,29.83,South,169,12.0,16.0,-999,-99.99,,,-99.99,,2013-03-12 10:12:00,
2013-03-12 06:23:00,-999.0,-99.9,29.82,SSE,164,11.0,18.0,-999,-99.99,,,-99.99,,2013-03-12 10:23:00,
2013-03-12 06:33:00,57.0,-99.9,29.81,SSE,162,13.0,17.0,-999,-99.99,,,-99.99,,2013-03-12 10:33:00,
2013-03-12 06:42:00,57.0,-99.9,29.81,SSE,153,13.0,18.0,-999,-99.99,,,-99.99,,2013-03-12 10:42:00,
2013-03-12 06:53:00,-999.0,-99.9,29.81,SSE,153,9.0,15.0,-999,-99.99,,,-99.99,,2013-03-12 10:53:00,
2013-03-12 07:02:00,57.0,-99.9,29.80,SSE,163,9.0,15.0,-999,-99.99,,,-99.99,,2013-03-12 11:02:00,
2013-03-12 07:12:00,57.0,-99.9,29.80,North,-999,-999.0,-999.0,-999,-99.99,,,-99.99,,2013-03-12 11:12:00,
2013-03-12 07:22:00,57.0,-99.9,29.80,North,-999,-999.0,-999.0,-999,-99.99,,,-99.99,,2013-03-12 11:22:00,
2013-03-12 07:33:00,56.0,-99.9,29.79,SSE,147,13.0,19.0,-999,-99.99,,,-99.99,,2013-03-12 11:33:00,
2013-03-12 07:42:00,-999.0,-99.9,29.79,SSE,157,13.0,17.0,-999,-99.99,,,-99.99,,2013-03-12 11:42:00,
2013-03-12 07:52:00,56.0,-99.9,29.78,North,-999,-999.0,-999.0,-999,-99.99,,,-99.99,,2013-03-12 11:52:00,
2013-03-12 08:03:00,56.0,-99.9,29.77,SSE,161,17.0,19.0,-999,-99.99,,,-99.99,,2013-03-12 12:03:00,
2013-03-12 08:12:00,56.0,-99.9,29.77,SSE,151,12.0,18.0,-999,-99.99,,,-99.99,,2013-03-12 12:12:00,
2013-03-12 08:22:00,55.0,-99.9,29.77,North,-999,-999.0,-999.0,-999,-99.99,,,-99.99,,2013-03-12 12:22:00,
2013-03-12 08:32:00,56.0,-99.9,29.77,SSE,167,16.0,20.0,-999,-99.99,,,-99.99,,2013-03-12 12:32:00,
2013-03-12 08:42:00,56.0,-99.9,29.76,North,-999,-999.0,-999.0,-999,-99.99,,,-99.99,,2013-03-12 12:42:00,
2013-03-12 08:52:00,56.0,-99.9,29.76,North,-999,-999.0,-999.0,-999,-99.99,,,-99.99,,2013-03-12 12:52:00,
2013-03-12 09:02:00,56.0,-99.9,29.75,South,170,14.0,19.0,-999,-99.99,,,-99.99,,2013-03-12 13:02:00,
2013-03-12 09:12:00,57.0,-99.9,29.75,North,-999,-999.0,-999.0,-999,-99.99,,,-99.99,,2013-03-12 13:12:00,
2013-03-12 09:22:00,-999.0,-99.9,29.74,SSE,162,17.0,22.0,-999,-99.99,,,-99.99,,2013-03-12 13:22:00,
2013-03-12 09:33:00,57.0,-99.9,29.74,SSE,166,19.0,24.0,-999,-99.99,,,-99.99,,2013-03-12 13:33:00,
2013-03-12 09:43:00,58.0,-99.9,29.73,SSE,162,16.0,23.0,-999,-99.99,,,-99.99,,2013-03-12 13:43:00,
2013-03-12 09:52:00,-999.0,-99.9,29.73,SSE,167,17.0,23.0,-999,-99.99,,,-99.99,,2013-03-12 13:52:00,
2013-03-12 10:02:00,58.0,-99.9,29.72,SSE,166,16.0,21.0,-999,-99.99,,,-99.99,,2013-03-12 14:02:00,
2013-03-12 10:12:00,-999.0,-99.9,29.72,SSE,159,14.0,23.0,-999,-99.99,,,-99.99,,2013-03-12 14:12:00,
2013-03-12 10:22:00,58.0,-99.9,29.71,North,-999,-999.0,-999.0,-999,-99.99,,,-99.99,,2013-03-12 14:22:00,
2013-03-12 10:33:00,58.0,-99.9,29.71,South,170,18.0,25.0,-999,-99.99,,,-99.99,,2013-03-12 14:33:00,
2013-03-12 10:43:00,-999.0,-99.9,29.70,SSE,152,16.0,24.0,-999,-99.99,,,-99.99,,2013-03-12 14:43:00,
2013-03-12 10:53:00,58.0,-99.9,29.69,North,-999,-999.0,-999.0,-999,-99.99,,,-99.99,,2013-03-12 14:53:00,
2013-03-12 11:03:00,58.0,-99.9,29.68,SSE,156,16.0,25.0,-999,-99.99,,,-99.99,,2013-03-12 15:03:00,
2013-03-12 11:13:00,58.0,-99.9,29.70,SW,229,11.0,20.0,-999,-99.99,,,-99.99,,2013-03-12 15:13:00,
2013-03-12 11:23:00,58.0,-99.9,29.72,North,-999,-999.0,-999.0,-999,-99.99,,,-99.99,,2013-03-12 15:23:00,
2013-03-12 11:33:00,57.0,-99.9,29.72,WSW,257,8.0,11.0,-999,-99.99,,,-99.99,,2013-03-12 15:33:00,
2013-03-12 11:43:00,56.0,-99.9,29.72,WNW,299,6.0,9.0,-999,-99.99,,,-99.99,,2013-03-12 15:43:00,
2013-03-12 11:53:00,56.0,-99.9,29.73,North,-999,-999.0,-999.0,-999,-99.99,,,-99.99,,2013-03-12 15:53:00,
2013-03-12 12:03:00,56.0,-99.9,29.74,WNW,303,10.0,12.0,-999,-99.99,,,-99.99,,2013-03-12 16:03:00,
2013-03-12 12:13:00,-999.0,-99.9,29.75,NW,311,13.0,24.0,-999,-99.99,,,-99.99,,2013-03-12 16:13:00,
2013-03-12 12:23:00,-999.0,-99.9,29.76,NW,314,15.0,21.0,-999,-99.99,,,-99.99,,2013-03-12 16:23:00,
2013-03-12 12:33:00,51.0,-99.9,29.75,NW,312,12.0,20.0,-999,-99.99,,,-99.99,,2013-03-12 16:33:00,
2013-03-12 12:43:00,51.0,-99.9,29.75,North,-999,-999.0,-999.0,-999,-99.99,,,-99.99,,2013-03-12 16:43:00,
2013-03-12 12:53:00,-999.0,-99.9,29.77,NW,313,13.0,20.0,-999,-99.99,,,-99.99,,2013-03-12 16:53:00,
2013-03-12 13:03:00,51.0,-99.9,29.77,NNW,327,12.0,16.0,-999,-99.99,,,-99.99,,2013-03-12 17:03:00,
2013-03-12 13:13:00,52.0,-99.9,29.76,NW,318,15.0,19.0,-999,-99.99,,,-99.99,,2013-03-12 17:13:00,
2013-03-12 13:23:00,-999.0,-99.9,29.76,NNW,336,11.0,18.0,-999,-99.99,,,-99.99,,2013-03-12 17:23:00,
2013-03-12 13:34:00,53.0,-99.9,29.76,NNW,330,14.0,20.0,-999,-99.99,,,-99.99,,2013-03-12 17:34:00,
2013-03-12 13:44:00,54.0,-99.9,29.76,North,-999,-999.0,-999.0,-999,-99.99,,,-99.99,,2013-03-12 17:44:00,
2013-03-12 13:54:00,54.0,-99.9,29.77,North,-999,-999.0,-999.0,-999,-99.99,,,-99.99,,2013-03-12 17:54:00,
2013-03-12 14:03:00,54.0,-99.9,29.77,NW,321,17.0,21.0,-999,-99.99,,,-99.99,,2013-03-12 18:03:00,
2013-03-12 14:13:00,55.0,-99.9,29.77,North,-999,-999.0,-999.0,-999,-99.99,,,-99.99,,2013-03-12 18:13:00,
2013-03-12 14:23:00,-999.0,-99.9,29.77,NNW,334,9.0,21.0,-999,-99.99,,,-99.99,,2013-03-12 18:23:00,
2013-03-12 14:33:00,55.0,-99.9,29.77,NW,326,14.0,17.0,-999,-99.99,,,-99.99,,2013-03-12 18:33:00,
2013-03-12 14:43:00,56.0,-99.9,29.76,NNW,337,11.0,17.0,-999,-99.99,,,-99.99,,2013-03-12 18:43:00,
2013-03-12 14:54:00,-999.0,-99.9,29.77,NNW,333,9.0,19.0,-999,-99.99,,,-99.99,,2013-03-12 18:54:00,
2013-03-12 15:04:00,55.0,-99.9,29.77,NW,322,18.0,21.0,-999,-99.99,,,-99.99,,2013-03-12 19:04:00,
2013-03-12 15:13:00,-999.0,-99.9,29.77,NW,321,11.0,16.0,-999,-99.99,,,-99.99,,2013-03-12 19:13:00,
2013-03-12 15:23:00,56.0,-99.9,29.77,North,-999,-999.0,-999.0,-999,-99.99,,,-99.99,,2013-03-12 19:23:00,
2013-03-12 15:33:00,56.0,-99.9,29.77,NW,312,11.0,15.0,-999,-99.99,,,-99.99,,2013-03-12 19:33:00,
2013-03-12 15:44:00,-999.0,-99.9,29.77,NW,320,13.0,22.0,-999,-99.99,,,-99.99,,2013-03-12 19:44:00,
2013-03-12 15:53:00,-999.0,-99.9,29.76,NW,324,14.0,19.0,-999,-99.99,,,-99.99,,2013-03-12 19:53:00,
2013-03-12 16:02:00,56.0,-99.9,29.76,NW,312,15.0,20.0,-999,-99.99,,,-99.99,,2013-03-12 20:02:00,
2013-03-12 16:13:00,56.0,-99.9,29.76,NW,315,13.0,16.0,-999,-99.99,,,-99.99,,2013-03-12 20:13:00,
2013-03-12 16:23:00,-999.0,-99.9,29.77,NNW,331,11.0,23.0,-999,-99.99,,,-99.99,,2013-03-12 20:23:00,
2013-03-12 16:33:00,56.0,-99.9,29.78,NNW,336,13.0,22.0,-999,-99.99,,,-99.99,,2013-03-12 20:33:00,
2013-03-12 16:42:00,-999.0,-99.9,29.78,NNW,335,9.0,20.0,-999,-99.99,,,-99.99,,2013-03-12 20:42:00,
2013-03-12 16:53:00,56.0,-99.9,29.78,North,-999,-999.0,-999.0,-999,-99.99,,,-99.99,,2013-03-12 20:53:00,
2013-03-12 17:03:00,55.0,-99.9,29.79,NW,315,13.0,22.0,-999,-99.99,,,-99.99,,2013-03-12 21:03:00,
2013-03-12 17:13:00,-999.0,-99.9,29.79,NW,314,15.0,26.0,-999,-99.99,,,-99.99,,2013-03-12 21:13:00,
2013-03-12 17:23:00,-999.0,-99.9,29.80,NNW,331,17.0,25.0,-999,-99.99,,,-99.99,,2013-03-12 21:23:00,
2013-03-12 17:33:00,55.0,-99.9,29.81,NW,324,16.0,18.0,-999,-99.99,,,-99.99,,2013-03-12 21:33:00,
2013-03-12 17:43:00,55.0,-99.9,29.81,NW,322,15.0,23.0,-999,-99.99,,,-99.99,,2013-03-12 21:43:00,
2013-03-12 17:53:00,54.0,-99.9,29.81,North,-999,-999.0,-999.0,-999,-99.99,,,-99.99,,2013-03-12 21:53:00,
2013-03-12 18:03:00,55.0,-99.9,29.81,NW,315,16.0,25.0,-999,-99.99,,,-99.99,,2013-03-12 22:03:00,
2013-03-12 18:13:00,55.0,-99.9,29.81,North,-999,-999.0,-999.0,-999,-99.99,,,-99.99,,2013-03-12 22:13:00,
2013-03-12 18:23:00,55.0,-99.9,29.82,North,-999,-999.0,-999.0,-999,-99.99,,,-99.99,,2013-03-12 22:23:00,
2013-03-12 18:33:00,55.0,-99.9,29.82,NNW,341,13.0,16.0,-999,-99.99,,,-99.99,,2013-03-12 22:33:00,
2013-03-12 18:43:00,-999.0,-99.9,29.82,North,351,11.0,21.0,-999,-99.99,,,-99.99,,2013-03-12 22:43:00,
2013-03-12 18:54:00,-999.0,-99.9,29.83,North,351,8.0,14.0,-999,-99.99,,,-99.99,,2013-03-12 22:54:00,
2013-03-12 19:03:00,53.0,-99.9,29.83,North,349,13.0,19.0,-999,-99.99,,,-99.99,,2013-03-12 23:03:00,
2013-03-12 19:12:00,52.0,-99.9,29.84,NNW,343,11.0,22.0,-999,-99.99,,,-99.99,,2013-03-12 23:12:00,
2013-03-12 19:23:00,-999.0,-99.9,29.85,NW,323,17.0,22.0,-999,-99.99,,,-99.99,,2013-03-12 23:23:00,
2013-03-12 19:34:00,50.0,-99.9,29.86,NNW,330,16.0,21.0,-999,-99.99,,,-99.99,,2013-03-12 23:34:00,
2013-03-12 19:44:00,50.0,-99.9,29.87,NNW,342,12.0,26.0,-999,-99.99,,,-99.99,,2013-03-12 23:44:00,
2013-03-12 19:53:00,-999.0,-99.9,29.87,NNW,338,13.0,23.0,-999,-99.99,,,-99.99,,2013-03-12 23:53:00,
2013-03-12 20:03:00,49.0,-99.9,29.87,NNW,339,11.0,22.0,-999,-99.99,,,-99.99,,2013-03-13 00:03:00,
2013-03-12 20:13:00,-999.0,-99.9,29.88,NNW,343,6.0,16.0,-999,-99.99,,,-99.99,,2013-03-13 00:13:00,
2013-03-12 20:23:00,-999.0,-99.9,29.89,NNW,339,11.0,24.0,-999,-99.99,,,-99.99,,2013-03-13 00:23:00,
2013-03-12 20:33:00,48.0,-99.9,29.89,NNW,348,12.0,22.0,-999,-99.99,,,-99.99,,2013-03-13 00:33:00,
2013-03-12 20:42:00,48.0,-99.9,29.90,NNW,344,8.0,21.0,-999,-99.99,,,-99.99,,2013-03-13 00:42:00,
2013-03-12 20:53:00,-999.0,-99.9,29.90,NNW,336,13.0,21.0,-999,-99.99,,,-99.99,,2013-03-13 00:53:00,
2013-03-12 21:03:00,48.0,-99.9,29.90,NNW,345,11.0,19.0,-999,-99.99,,,-99.99,,2013-03-13 01:03:00,
2013-03-12 21:13:00,48.0,-99.9,29.91,North,354,10.0,15.0,-999,-99.99,,,-99.99,,2013-03-13 01:13:00,
2013-03-12 21:22:00,-999.0,-99.9,29.91,North,2,9.0,15.0,-999,-99.99,,,-99.99,,2013-03-13 01:22:00,
2013-03-12 21:33:00,48.0,-99.9,29.92,North,359,10.0,21.0,-999,-99.99,,,-99.99,,2013-03-13 01:33:00,
2013-03-12 21:43:00,47.0,-99.9,29.92,North,357,10.0,20.0,-999,-99.99,,,-99.99,,2013-03-13 01:43:00,
2013-03-12 21:53:00,47.0,-99.9,29.92,North,-999,-999.0,-999.0,-999,-99.99,,,-99.99,,2013-03-13 01:53:00,
2013-03-12 22:03:00,47.0,-99.9,29.93,NNW,332,14.0,22.0,-999,-99.99,,,-99.99,,2013-03-13 02:03:00,
2013-03-12 22:12:00,47.0,-99.9,29.94,NNW,345,9.0,18.0,-999,-99.99,,,-99.99,,2013-03-13 02:12:00,
2013-03-12 22:23:00,46.0,-99.9,29.94,North,-999,-999.0,-999.0,-999,-99.99,,,-99.99,,2013-03-13 02:23:00,
2013-03-12 22:33:00,46.0,-99.9,29.94,NW,324,13.0,15.0,-999,-99.99,,,-99.99,,2013-03-13 02:33:00,
2013-03-12 22:43:00,46.0,-99.9,29.94,North,358,6.0,15.0,-999,-99.99,,,-99.99,,2013-03-13 02:43:00,
2013-03-12 22:53:00,-999.0,-99.9,29.94,NNW,335,7.0,14.0,-999,-99.99,,,-99.99,,2013-03-13 02:53:00,
2013-03-12 23:02:00,46.0,-99.9,29.95,NNW,327,11.0,15.0,-999,-99.99,,,-99.99,,2013-03-13 03:02:00,
2013-03-12 23:13:00,-999.0,-99.9,29.95,NNW,330,8.0,15.0,-999,-99.99,,,-99.99,,2013-03-13 03:13:00,
2013-03-12 23:22:00,45.0,-99.9,29.95,North,-999,-999.0,-999.0,-999,-99.99,,,-99.99,,2013-03-13 03:22:00,
2013-03-12 23:33:00,45.0,-99.9,29.95,NNW,333,5.0,14.0,-999,-99.99,,,-99.99,,2013-03-13 03:33:00,
2013-03-12 23:43:00,-999.0,-99.9,29.96,NNW,328,11.0,12.0,-999,-99.99,,,-99.99,,2013-03-13 03:43:00,
2013-03-12 23:53:00,45.0,-99.9,29.96,North,-999,-999.0,-999.0,-999,-99.99,,,-99.99,,2013-03-13 03:53:00,